Time;durP1;ratioP1;P1;durP2;ratioP2;P2;SDS_P1;SDS_P2;PMS_P1;PMS_P2;Temp;Humidity;BMP_temperature;BMP_pressure;BME280_temperature;BME280_humidity;BME280_pressure;Samples;Min_cycle;Max_cycle;Signal;HPM_P1;HPM_P2
2023/09/14 00:01:08;;;;;;;15.80;5.93;;;;;;;15.47;100.00;102236.13;5032364;28;20477;-88
2023/09/14 00:03:33;;;;;;;17.73;6.50;;;;;;;15.45;100.00;102235.34;5014768;28;20038;-88
2023/09/14 00:05:59;;;;;;;17.98;6.75;;;;;;;15.48;100.00;102232.47;4998047;28;20511;-88
2023/09/14 00:08:29;;;;;;;14.32;5.70;;;;;;;15.48;100.00;102232.47;5014699;28;20034;-88
2023/09/14 00:10:58;;;;;;;14.95;5.75;;;;;;;15.46;100.00;102237.06;4998350;28;20054;-88
2023/09/14 00:13:24;;;;;;;13.85;5.70;;;;;;;15.37;100.00;102243.03;5015883;28;20041;-87
2023/09/14 00:15:51;;;;;;;16.45;5.80;;;;;;;15.30;100.00;102239.84;5015095;28;20034;-88
2023/09/14 00:18:17;;;;;;;16.15;5.82;;;;;;;15.37;100.00;102249.28;4993244;28;20045;-87
2023/09/14 00:20:42;;;;;;;11.23;5.57;;;;;;;15.33;100.00;102244.19;5015029;28;20399;-87
2023/09/14 00:23:08;;;;;;;11.38;5.65;;;;;;;15.32;100.00;102240.63;5009269;28;20074;-89
2023/09/14 00:25:34;;;;;;;18.38;6.20;;;;;;;15.32;100.00;102242.44;5002252;28;20051;-87
2023/09/14 00:27:59;;;;;;;17.15;5.63;;;;;;;15.33;100.00;102239.66;5003880;28;20038;-89
2023/09/14 00:30:25;;;;;;;20.98;6.47;;;;;;;15.30;100.00;102250.59;5010104;28;20038;-89
2023/09/14 00:32:52;;;;;;;16.95;6.82;;;;;;;15.35;100.00;102240.41;5004349;28;20031;-89
2023/09/14 00:35:19;;;;;;;14.13;6.40;;;;;;;15.37;100.00;102232.28;4978956;28;20034;-89
2023/09/14 00:37:45;;;;;;;14.95;6.35;;;;;;;15.34;100.00;102229.78;5004480;28;20038;-88
2023/09/14 00:40:13;;;;;;;12.30;5.80;;;;;;;15.22;100.00;102229.56;5011718;28;20071;-90
2023/09/14 00:42:46;;;;;;;14.40;6.35;;;;;;;15.16;100.00;102240.69;5004982;28;20035;-88
2023/09/14 00:45:18;;;;;;;16.40;7.47;;;;;;;15.18;100.00;102233.38;5013256;28;20160;-89
2023/09/14 00:47:47;;;;;;;19.83;7.22;;;;;;;15.19;100.00;102234.25;4991746;28;20078;-88
2023/09/14 00:50:15;;;;;;;16.50;7.40;;;;;;;15.21;100.00;102238.59;5007338;28;20035;-88
2023/09/14 00:52:42;;;;;;;16.33;6.88;;;;;;;15.22;100.00;102242.16;5014264;28;20034;-87
2023/09/14 00:55:09;;;;;;;20.48;7.40;;;;;;;15.10;100.00;102241.03;5016743;28;20093;-88
2023/09/14 00:57:36;;;;;;;15.20;6.75;;;;;;;15.11;100.00;102244.59;5015737;28;20050;-89
2023/09/14 01:00:10;;;;;;;15.18;7.25;;;;;;;15.00;100.00;102240.72;5018410;28;20043;-89
2023/09/14 01:02:42;;;;;;;15.52;7.60;;;;;;;14.89;100.00;102245.88;4996008;28;20097;-87
2023/09/14 01:05:08;;;;;;;;;;;;;;;14.89;100.00;102242.31;5007010;28;20107;-88
2023/09/14 01:07:34;;;;;;;19.17;7.70;;;;;;;14.96;100.00;102241.88;5013912;28;19949;-88
2023/09/14 01:10:00;;;;;;;21.10;7.75;;;;;;;15.00;100.00;102247.91;4996501;28;21056;-89
2023/09/14 01:12:33;;;;;;;18.65;7.85;;;;;;;14.97;100.00;102240.91;5014144;28;20197;-88
2023/09/14 01:15:07;;;;;;;22.08;8.10;;;;;;;14.96;100.00;102235.63;5011851;28;20073;-89
2023/09/14 01:17:42;;;;;;;21.98;8.20;;;;;;;15.01;100.00;102237.09;5007739;28;20042;-89
2023/09/14 01:20:42;;;;;;;18.65;8.07;;;;;;;15.04;100.00;102233.34;5007171;28;20046;-88
2023/09/14 01:23:56;;;;;;;22.38;7.97;;;;;;;14.97;100.00;102238.25;4996735;28;20042;-88
2023/09/14 01:26:27;;;;;;;19.00;7.95;;;;;;;15.03;100.00;102229.81;4907457;29;20055;-89
2023/09/14 01:28:53;;;;;;;14.63;7.80;;;;;;;15.02;100.00;102238.81;4910112;29;20084;-88
2023/09/14 01:31:19;;;;;;;19.13;8.57;;;;;;;15.09;100.00;102235.75;4929232;28;20064;-88
2023/09/14 01:33:48;;;;;;;15.88;8.15;;;;;;;15.05;100.00;102237.75;4890042;29;20040;-88
2023/09/14 01:36:26;;;;;;;14.15;7.65;;;;;;;15.09;100.00;102241.13;4885761;29;20049;-88
2023/09/14 01:38:55;;;;;;;14.45;7.45;;;;;;;15.07;100.00;102237.69;4907941;29;20044;-88
2023/09/14 01:41:22;;;;;;;14.98;7.75;;;;;;;15.11;100.00;102245.47;4925608;29;20041;-90
2023/09/14 01:43:51;;;;;;;22.00;7.50;;;;;;;15.10;100.00;102240.19;4908699;29;20048;-90
2023/09/14 01:46:17;;;;;;;17.45;7.75;;;;;;;15.18;100.00;102241.44;4895077;29;20046;-89
2023/09/14 01:48:44;;;;;;;19.70;7.88;;;;;;;15.10;100.00;102234.81;4896004;29;20092;-88
2023/09/14 01:51:11;;;;;;;18.15;7.07;;;;;;;15.03;100.00;102240.56;4927866;29;20040;-88
2023/09/14 01:53:37;;;;;;;19.63;8.23;;;;;;;14.93;100.00;102235.81;4929007;29;20036;-89
2023/09/14 01:56:03;;;;;;;19.30;8.65;;;;;;;14.93;100.00;102230.44;4929535;29;20052;-90
2023/09/14 01:58:31;;;;;;;21.33;7.47;;;;;;;14.98;100.00;102225.66;4924206;29;20056;-88
2023/09/14 02:00:57;;;;;;;21.80;8.10;;;;;;;15.00;100.00;102229.13;4927273;28;20731;-90
2023/09/14 02:03:23;;;;;;;21.27;8.63;;;;;;;15.02;100.00;102230.75;5017341;28;20034;-88
2023/09/14 02:05:58;;;;;;;20.40;8.35;;;;;;;15.02;100.00;102230.75;5007310;28;20048;-89
2023/09/14 02:08:25;;;;;;;22.52;8.70;;;;;;;15.00;100.00;102224.59;4992363;28;20136;-89
2023/09/14 02:10:52;;;;;;;18.77;7.45;;;;;;;14.84;100.00;102226.47;5013810;28;20033;-89
2023/09/14 02:13:18;;;;;;;18.65;8.60;;;;;;;14.75;100.00;102229.69;5011826;28;20042;-88
2023/09/14 02:15:44;;;;;;;19.17;7.32;;;;;;;14.66;100.00;102219.50;4990199;28;20034;-89
2023/09/14 02:18:10;;;;;;;21.90;8.68;;;;;;;14.67;100.00;102223.94;5013825;28;20124;-89
2023/09/14 02:20:38;;;;;;;17.90;7.30;;;;;;;14.62;100.00;102218.81;5032824;28;20052;-89
2023/09/14 02:23:04;;;;;;;18.88;8.57;;;;;;;14.58;100.00;102222.66;5014529;28;20042;-88
2023/09/14 02:25:30;;;;;;;15.00;7.57;;;;;;;14.59;100.00;102219.00;4997437;28;20045;-88
2023/09/14 02:27:56;;;;;;;22.38;8.15;;;;;;;14.52;100.00;102220.31;5024849;28;20856;-90
2023/09/14 02:30:22;;;;;;;12.38;7.57;;;;;;;14.45;100.00;102221.56;4991623;28;20069;-90
2023/09/14 02:32:48;;;;;;;20.10;7.30;;;;;;;14.40;100.00;102216.47;4998224;28;20542;-89
2023/09/14 02:35:14;;;;;;;18.92;8.27;;;;;;;14.40;100.00;102212.91;5031934;28;20034;-90
2023/09/14 02:37:40;;;;;;;19.17;7.88;;;;;;;14.20;100.00;102214.06;5012992;28;20085;-88
2023/09/14 02:40:06;;;;;;;22.30;8.75;;;;;;;14.23;100.00;102206.72;5012884;28;20372;-88
2023/09/14 02:42:36;;;;;;;16.67;7.85;;;;;;;14.29;100.00;102208.19;4998756;28;20066;-90
2023/09/14 02:45:03;;;;;;;15.40;6.97;;;;;;;14.36;100.00;102208.72;4995259;28;20033;-88
2023/09/14 02:47:31;;;;;;;19.63;8.65;;;;;;;14.27;100.00;102210.09;4989874;28;20031;-88
2023/09/14 02:49:58;;;;;;;18.60;7.40;;;;;;;14.30;100.00;102206.34;4993129;28;20046;-88
2023/09/14 02:52:23;;;;;;;25.20;8.98;;;;;;;14.18;100.00;102208.78;5012331;28;20038;-88
2023/09/14 02:54:50;;;;;;;18.42;7.78;;;;;;;14.09;100.00;102205.75;4990428;28;20109;-89
2023/09/14 02:57:15;;;;;;;18.52;7.65;;;;;;;14.08;100.00;102204.03;4992627;28;20057;-90
2023/09/14 02:59:41;;;;;;;16.75;7.40;;;;;;;13.97;100.00;102210.00;5005671;28;20479;-88
2023/09/14 03:02:08;;;;;;;20.30;7.38;;;;;;;13.98;100.00;102203.69;5006318;28;20033;-88
2023/09/14 03:04:36;;;;;;;14.23;7.85;;;;;;;13.93;100.00;102203.94;5011661;28;20042;-88
2023/09/14 03:07:03;;;;;;;20.50;9.20;;;;;;;13.89;100.00;102201.50;4994294;28;20046;-89
2023/09/14 03:09:28;;;;;;;16.38;8.52;;;;;;;13.77;100.00;102207.56;5007187;28;20452;-90
2023/09/14 03:11:55;;;;;;;24.02;7.82;;;;;;;13.77;100.00;102205.75;4995198;28;20695;-89
2023/09/14 03:14:20;;;;;;;15.85;7.20;;;;;;;13.65;100.00;102201.03;4994619;28;20030;-89
2023/09/14 03:16:46;;;;;;;15.93;6.30;;;;;;;13.54;100.00;102201.63;4995077;28;20100;-88
2023/09/14 03:19:12;;;;;;;12.50;6.63;;;;;;;13.55;100.00;102210.53;4995753;28;20475;-89
2023/09/14 03:21:37;;;;;;;13.85;6.28;;;;;;;13.51;100.00;102214.34;5018591;28;20046;-89
2023/09/14 03:24:03;;;;;;;17.67;7.32;;;;;;;13.50;100.00;102213.44;4995777;28;20365;-89
2023/09/14 03:26:32;;;;;;;13.35;6.22;;;;;;;13.30;100.00;102206.47;5011451;28;20099;-89
2023/09/14 03:28:58;;;;;;;14.70;6.70;;;;;;;13.32;100.00;102212.63;5031094;28;20026;-90
2023/09/14 03:31:25;;;;;;;20.98;7.68;;;;;;;13.40;100.00;102217.56;4996325;28;20418;-89
2023/09/14 03:33:52;;;;;;;19.00;7.50;;;;;;;13.36;100.00;102218.69;5006153;28;20077;-89
2023/09/14 03:36:19;;;;;;;16.70;8.45;;;;;;;13.35;100.00;102217.81;5010770;28;20030;-90
2023/09/14 03:38:45;;;;;;;25.73;9.02;;;;;;;13.35;100.00;102225.84;5004867;28;20046;-90
2023/09/14 03:41:12;;;;;;;20.73;8.15;;;;;;;13.28;100.00;102224.44;4996135;28;20042;-89
2023/09/14 03:43:41;;;;;;;18.05;8.90;;;;;;;13.26;100.00;102225.50;4993204;28;20049;-89
2023/09/14 03:46:07;;;;;;;14.50;7.32;;;;;;;13.12;100.00;102227.03;4993853;28;20081;-88
2023/09/14 03:48:33;;;;;;;13.38;6.60;;;;;;;13.03;100.00;102227.50;4993419;28;20164;-88
2023/09/14 03:51:00;;;;;;;13.73;7.07;;;;;;;13.01;100.00;102225.88;4988335;28;20030;-88
2023/09/14 03:53:29;;;;;;;16.10;6.10;;;;;;;12.97;100.00;102233.19;4996898;28;20032;-89
2023/09/14 03:55:55;;;;;;;10.77;6.13;;;;;;;12.95;100.00;102227.91;5029894;28;20068;-89
2023/09/14 03:58:23;;;;;;;9.70;6.00;;;;;;;12.90;100.00;102237.09;5011927;28;20098;-91
2023/09/14 04:00:49;;;;;;;16.55;6.60;;;;;;;12.97;100.00;102230.50;5013433;28;20030;-88
2023/09/14 04:03:18;;;;;;;17.02;7.07;;;;;;;12.93;100.00;102232.47;5013355;28;20103;-92
2023/09/14 04:05:45;;;;;;;13.02;6.63;;;;;;;12.89;100.00;102235.38;5007702;28;20053;-90
2023/09/14 04:08:10;;;;;;;17.48;7.53;;;;;;;12.86;100.00;102232.88;5006545;28;20165;-90
2023/09/14 04:10:40;;;;;;;17.45;6.63;;;;;;;12.85;100.00;102225.75;5010365;28;20833;-90
2023/09/14 04:13:30;;;;;;;12.43;6.55;;;;;;;12.83;100.00;102230.34;5025195;28;20503;-89
2023/09/14 04:16:00;;;;;;;15.98;6.00;;;;;;;12.83;100.00;102228.53;5031346;28;20034;-89
2023/09/14 04:18:39;;;;;;;14.00;7.75;;;;;;;12.82;100.00;102228.59;5011527;28;20046;-90
2023/09/14 04:21:06;;;;;;;14.45;6.55;;;;;;;12.77;100.00;102228.84;5014734;28;20850;-89
2023/09/14 04:23:32;;;;;;;10.10;5.38;;;;;;;12.77;100.00;102222.63;5007846;28;20045;-90
2023/09/14 04:26:00;;;;;;;16.45;6.75;;;;;;;12.75;100.00;102227.16;4999425;28;20036;-89
2023/09/14 04:28:30;;;;;;;13.75;5.78;;;;;;;12.69;100.00;102231.88;5008227;28;20037;-89
2023/09/14 04:31:01;;;;;;;10.27;6.03;;;;;;;12.71;100.00;102226.47;5013402;28;20034;-89
2023/09/14 04:33:29;;;;;;;10.93;5.93;;;;;;;12.77;100.00;102227.97;5016314;28;20069;-89
2023/09/14 04:36:02;;;;;;;9.10;5.10;;;;;;;12.60;100.00;102221.66;4999381;28;20781;-89
2023/09/14 04:38:36;;;;;;;10.45;5.35;;;;;;;12.67;100.00;102222.22;5014846;28;20121;-88
2023/09/14 04:41:06;;;;;;;12.38;6.00;;;;;;;12.62;100.00;102225.13;5016020;28;20033;-90
2023/09/14 04:43:33;;;;;;;10.88;6.13;;;;;;;12.64;100.00;102225.03;4988786;28;20029;-88
2023/09/14 04:46:04;;;;;;;15.30;7.28;;;;;;;12.72;100.00;102230.00;5000728;28;20053;-89
2023/09/14 04:48:30;;;;;;;11.80;5.33;;;;;;;12.65;100.00;102230.31;5013691;28;20145;-88
2023/09/14 04:50:59;;;;;;;14.40;5.80;;;;;;;12.65;100.00;102229.44;5034497;28;20036;-88
2023/09/14 04:53:26;;;;;;;14.43;6.55;;;;;;;12.64;100.00;102223.22;5015357;28;20062;-89
2023/09/14 04:55:56;;;;;;;11.38;6.18;;;;;;;12.67;100.00;102231.09;4994910;28;20114;-89
2023/09/14 04:58:22;;;;;;;13.88;6.45;;;;;;;12.65;100.00;102230.31;4997656;28;20026;-89
2023/09/14 05:00:49;;;;;;;9.80;5.60;;;;;;;12.60;100.00;102236.81;5015018;28;20041;-89
2023/09/14 05:03:16;;;;;;;15.73;7.15;;;;;;;12.60;100.00;102235.03;4998070;28;20038;-89
2023/09/14 05:05:42;;;;;;;12.40;7.13;;;;;;;12.55;100.00;102234.41;5014148;28;20042;-90
2023/09/14 05:08:07;;;;;;;14.85;6.50;;;;;;;12.60;100.00;102227.00;4997915;28;20030;-88
2023/09/14 05:10:34;;;;;;;15.57;6.90;;;;;;;12.53;100.00;102233.59;5014095;28;20045;-89
2023/09/14 05:12:59;;;;;;;16.67;5.68;;;;;;;12.55;100.00;102234.41;4998280;28;20090;-88
2023/09/14 05:15:25;;;;;;;13.50;6.60;;;;;;;12.49;100.00;102234.69;4997209;28;20038;-89
2023/09/14 05:17:54;;;;;;;14.45;6.55;;;;;;;12.50;100.00;102238.22;5013621;28;20042;-90
2023/09/14 05:20:20;;;;;;;18.73;6.50;;;;;;;12.53;100.00;102230.06;5014239;28;20121;-89
2023/09/14 05:22:45;;;;;;;18.95;7.28;;;;;;;12.50;100.00;102236.44;5014692;28;20491;-90
2023/09/14 05:25:11;;;;;;;11.93;5.40;;;;;;;12.49;100.00;102239.16;5031931;28;20034;-90
2023/09/14 05:27:38;;;;;;;12.48;6.18;;;;;;;12.56;100.00;102236.13;5013165;28;20057;-90
2023/09/14 05:30:08;;;;;;;12.90;5.53;;;;;;;12.57;100.00;102242.34;4977595;28;20065;-89
2023/09/14 05:32:35;;;;;;;14.95;6.72;;;;;;;12.54;100.00;102237.13;5007238;28;20065;-90
2023/09/14 05:35:00;;;;;;;11.68;5.40;;;;;;;12.63;100.00;102242.91;4991039;28;20049;-89
2023/09/14 05:37:33;;;;;;;10.63;5.93;;;;;;;12.65;100.00;102241.03;5010542;28;20027;-89
2023/09/14 05:39:59;;;;;;;13.30;6.07;;;;;;;12.68;100.00;102248.88;4996694;28;20105;-89
2023/09/14 05:42:25;;;;;;;14.57;6.85;;;;;;;12.73;100.00;102245.13;4999148;28;20076;-89
2023/09/14 05:44:51;;;;;;;17.27;6.72;;;;;;;12.80;100.00;102244.75;5001010;28;20073;-89
2023/09/14 05:47:19;;;;;;;12.75;5.88;;;;;;;12.78;100.00;102251.97;5018597;28;20034;-89
2023/09/14 05:49:45;;;;;;;10.32;6.28;;;;;;;12.82;100.00;102255.38;5037252;28;20448;-90
2023/09/14 05:52:11;;;;;;;13.57;6.93;;;;;;;12.82;100.00;102261.59;5001905;28;20145;-89
2023/09/14 05:54:37;;;;;;;17.58;6.70;;;;;;;12.91;100.00;102263.81;5014907;28;20053;-89
2023/09/14 05:57:03;;;;;;;12.13;6.28;;;;;;;13.00;100.00;102262.47;5003313;28;20041;-89
2023/09/14 05:59:29;;;;;;;13.68;7.43;;;;;;;13.08;100.00;102257.59;5019114;28;20045;-90
2023/09/14 06:01:55;;;;;;;15.93;7.13;;;;;;;13.14;100.00;102254.59;5019119;28;20034;-89
2023/09/14 06:04:22;;;;;;;17.88;8.10;;;;;;;13.18;100.00;102249.94;5000836;28;20038;-89
2023/09/14 06:06:48;;;;;;;16.02;6.90;;;;;;;13.27;100.00;102251.34;5003654;28;20036;-89
2023/09/14 06:09:14;;;;;;;13.57;7.18;;;;;;;13.35;100.00;102247.28;5038177;28;20490;-89
2023/09/14 06:11:41;;;;;;;17.05;6.72;;;;;;;13.37;100.00;102248.09;5021233;28;20042;-88
2023/09/14 06:14:07;;;;;;;18.75;7.00;;;;;;;13.44;100.00;102252.16;5022535;28;20074;-89
2023/09/14 06:16:33;;;;;;;15.50;7.00;;;;;;;13.54;100.00;102255.22;5006762;28;20174;-89
2023/09/14 06:18:58;;;;;;;14.45;7.70;;;;;;;13.58;100.00;102256.78;5040918;28;20053;-89
2023/09/14 06:21:24;;;;;;;12.32;8.05;;;;;;;13.66;100.00;102253.72;5017833;28;20026;-90
2023/09/14 06:23:50;;;;;;;17.38;7.88;;;;;;;13.77;100.00;102263.88;5022935;28;20479;-89
2023/09/14 06:26:15;;;;;;;15.18;6.65;;;;;;;13.82;100.00;102251.94;5021689;28;20053;-90
2023/09/14 06:28:41;;;;;;;13.23;6.53;;;;;;;13.81;100.00;102254.72;5040215;28;20033;-89
2023/09/14 06:31:07;;;;;;;17.27;7.03;;;;;;;14.01;100.00;102254.47;5016134;28;20138;-88
2023/09/14 06:33:32;;;;;;;13.57;7.35;;;;;;;14.11;100.00;102261.06;5034819;28;20515;-89
2023/09/14 06:35:58;;;;;;;19.50;8.70;;;;;;;14.11;100.00;102258.38;5022558;28;20437;-90
2023/09/14 06:38:24;;;;;;;14.75;7.32;;;;;;;14.27;100.00;102257.53;5019218;28;20034;-90
2023/09/14 06:40:50;;;;;;;21.77;8.05;;;;;;;14.45;100.00;102259.16;5037540;28;20034;-90
2023/09/14 06:43:16;;;;;;;17.83;8.00;;;;;;;14.68;100.00;102250.69;5024574;28;20026;-90
2023/09/14 06:45:42;;;;;;;15.82;7.97;;;;;;;14.94;100.00;102250.97;5010286;28;20091;-90
2023/09/14 06:48:08;;;;;;;13.82;7.00;;;;;;;15.14;100.00;102247.09;5018195;28;20084;-89
2023/09/14 06:50:33;;;;;;;11.48;6.88;;;;;;;15.33;100.00;102239.66;5011023;28;20873;-90
2023/09/14 06:52:59;;;;;;;15.50;7.20;;;;;;;15.50;100.00;102241.31;5052333;28;20042;-91
2023/09/14 06:55:24;;;;;;;17.95;7.47;;;;;;;15.58;100.00;102247.09;5029548;28;20029;-91
2023/09/14 06:57:50;;;;;;;15.07;7.10;;;;;;;15.85;100.00;102243.66;5013189;28;20097;-91
2023/09/14 07:00:20;;;;;;;13.73;7.15;;;;;;;16.06;100.00;102244.97;5030321;28;20046;-90
2023/09/14 07:02:52;;;;;;;12.57;6.55;;;;;;;16.15;100.00;102247.06;5014116;28;20038;-91
2023/09/14 07:05:18;;;;;;;15.35;7.45;;;;;;;16.35;100.00;102237.72;5013733;28;20053;-91
2023/09/14 07:07:44;;;;;;;16.13;7.05;;;;;;;16.39;100.00;102246.47;5015882;28;20038;-90
2023/09/14 07:10:10;;;;;;;17.67;6.10;;;;;;;16.48;100.00;102243.16;5049726;28;20061;-90
2023/09/14 07:12:36;;;;;;;13.00;5.75;;;;;;;16.41;100.00;102245.38;5049435;28;20044;-90
2023/09/14 07:15:03;;;;;;;14.00;6.40;;;;;;;16.66;100.00;102241.06;5047649;28;20033;-90
2023/09/14 07:17:28;;;;;;;11.40;6.22;;;;;;;16.69;100.00;102247.13;5056122;28;20044;-91
2023/09/14 07:19:55;;;;;;;11.60;5.95;;;;;;;16.95;100.00;102249.94;5029247;28;20098;-91
2023/09/14 07:22:21;;;;;;;18.88;5.95;;;;;;;17.14;100.00;102252.25;5027463;28;20057;-91
2023/09/14 07:24:50;;;;;;;15.88;6.28;;;;;;;17.35;100.00;102248.06;5024478;28;20037;-90
2023/09/14 07:27:21;;;;;;;16.83;5.22;;;;;;;17.33;100.00;102247.31;5024777;28;20076;-91
2023/09/14 07:29:47;;;;;;;14.38;5.50;;;;;;;17.27;100.00;102245.00;5010125;28;20030;-91
2023/09/14 07:32:12;;;;;;;16.17;5.25;;;;;;;17.28;100.00;102253.00;5008505;28;20037;-91
2023/09/14 07:34:38;;;;;;;13.70;5.25;;;;;;;17.41;100.00;102246.75;5007664;28;20030;-91
2023/09/14 07:37:04;;;;;;;15.15;4.80;;;;;;;17.28;100.00;102249.47;5005846;28;20054;-91
2023/09/14 07:39:30;;;;;;;16.20;4.78;;;;;;;17.41;100.00;102249.47;5006386;28;20091;-91
2023/09/14 07:41:56;;;;;;;16.92;4.65;;;;;;;17.64;100.00;102247.84;5006959;28;20772;-90
2023/09/14 07:44:23;;;;;;;18.63;4.95;;;;;;;17.60;100.00;102247.19;5007265;28;20054;-91
2023/09/14 07:46:48;;;;;;;12.85;4.43;;;;;;;17.68;100.00;102249.38;5023055;28;20069;-90
2023/09/14 07:49:17;;;;;;;15.80;4.53;;;;;;;18.07;100.00;102253.75;5002701;28;20302;-90
2023/09/14 07:51:43;;;;;;;11.35;4.75;;;;;;;18.43;100.00;102255.63;5019176;28;20069;-90
2023/09/14 07:54:09;;;;;;;7.13;3.47;;;;;;;18.82;99.23;102265.28;5019243;28;20042;-92
2023/09/14 07:56:35;;;;;;;15.95;3.80;;;;;;;18.79;95.58;102257.44;5005337;28;20041;-91
2023/09/14 07:59:00;;;;;;;14.88;3.45;;;;;;;18.79;92.72;102257.44;5021881;28;20033;-91
2023/09/14 08:01:36;;;;;;;11.95;3.70;;;;;;;19.08;93.80;102259.78;5005790;28;20124;-89
2023/09/14 08:04:03;;;;;;;12.82;3.90;;;;;;;19.88;91.59;102262.50;5019086;28;20045;-90
2023/09/14 08:06:28;;;;;;;18.45;4.07;;;;;;;20.21;86.27;102256.22;5026035;28;20479;-90
2023/09/14 08:08:58;;;;;;;18.58;3.90;;;;;;;19.81;86.14;102267.56;5009426;28;20029;-90
2023/09/14 08:11:24;;;;;;;10.60;3.47;;;;;;;19.45;90.94;102265.03;5019874;28;20038;-90
2023/09/14 08:13:49;;;;;;;14.32;4.13;;;;;;;19.03;91.65;102270.06;5021707;28;20104;-90
2023/09/14 08:16:15;;;;;;;12.07;3.97;;;;;;;18.77;94.74;102259.38;4996284;28;20475;-90
2023/09/14 08:18:42;;;;;;;9.95;3.30;;;;;;;18.44;94.79;102270.84;5004480;28;20053;-90
2023/09/14 08:21:07;;;;;;;16.27;3.88;;;;;;;18.32;96.84;102269.91;5020805;28;20057;-90
2023/09/14 08:23:36;;;;;;;11.63;3.45;;;;;;;18.38;96.94;102263.19;5003293;28;20042;-90
2023/09/14 08:26:06;;;;;;;14.32;3.80;;;;;;;18.51;97.25;102268.53;5019160;28;20038;-92
2023/09/14 08:28:31;;;;;;;12.23;3.63;;;;;;;18.47;98.08;102273.31;5025371;28;20034;-91
2023/09/14 08:30:57;;;;;;;16.95;4.30;;;;;;;18.43;98.21;102269.13;4996574;28;20101;-91
2023/09/14 08:33:23;;;;;;;12.25;4.35;;;;;;;18.16;100.00;102269.28;5019538;28;20042;-90
2023/09/14 08:35:49;;;;;;;15.20;5.03;;;;;;;18.00;100.00;102266.84;5020529;28;20030;-91
2023/09/14 08:38:16;;;;;;;11.25;4.05;;;;;;;18.08;100.00;102263.59;5019925;28;20084;-90
2023/09/14 08:40:42;;;;;;;9.32;4.40;;;;;;;18.03;100.00;102263.94;5002920;28;20050;-91
2023/09/14 08:43:19;;;;;;;15.77;3.95;;;;;;;18.19;100.00;102263.69;5020541;28;20030;-91
2023/09/14 08:45:45;;;;;;;13.60;4.45;;;;;;;17.93;100.00;102265.56;5019619;28;20041;-91
2023/09/14 08:48:13;;;;;;;18.20;4.28;;;;;;;18.21;100.00;102259.00;5037773;28;20562;-89
2023/09/14 08:50:43;;;;;;;15.77;5.13;;;;;;;18.07;100.00;102253.75;5020171;28;20041;-89
2023/09/14 08:53:12;;;;;;;14.65;4.93;;;;;;;18.05;100.00;102253.88;5018863;28;20044;-90
2023/09/14 08:55:38;;;;;;;14.18;5.05;;;;;;;18.41;98.58;102259.41;5001504;28;20044;-89
2023/09/14 08:58:04;;;;;;;12.48;4.95;;;;;;;17.96;99.41;102261.78;5002743;28;20061;-90
2023/09/14 09:00:31;;;;;;;13.35;5.90;;;;;;;18.19;99.43;102252.00;5025235;28;20056;-88
2023/09/14 09:02:57;;;;;;;15.18;5.70;;;;;;;18.57;98.35;102251.88;5016746;28;20029;-90
2023/09/14 09:05:25;;;;;;;20.02;6.55;;;;;;;18.64;98.61;102253.16;5036434;28;20050;-90
2023/09/14 09:07:54;;;;;;;22.13;6.55;;;;;;;18.52;100.00;102256.75;5001618;28;20042;-89
2023/09/14 09:10:28;;;;;;;20.08;9.57;;;;;;;18.62;97.98;102260.50;5016985;28;20038;-90
2023/09/14 09:13:02;;;;;;;22.40;7.90;;;;;;;18.67;99.79;102258.31;5006268;28;20046;-89
2023/09/14 09:15:29;;;;;;;17.08;7.47;;;;;;;18.78;97.69;102255.72;5033462;28;20164;-90
2023/09/14 09:18:04;;;;;;;22.15;7.80;;;;;;;18.56;96.88;102258.25;4999625;28;20038;-90
2023/09/14 09:20:30;;;;;;;20.38;7.53;;;;;;;18.59;98.31;102252.63;5030619;28;20081;-90
2023/09/14 09:23:00;;;;;;;20.25;7.50;;;;;;;19.07;100.00;102256.19;4998530;28;20054;-90
2023/09/14 09:25:29;;;;;;;19.80;7.55;;;;;;;19.00;100.00;102244.13;4998309;28;20034;-88
2023/09/14 09:28:01;;;;;;;21.10;7.38;;;;;;;18.80;100.00;102242.06;5008537;28;20030;-90
2023/09/14 09:30:31;;;;;;;24.33;8.95;;;;;;;19.35;100.00;102240.53;5026119;28;20133;-89
2023/09/14 09:32:58;;;;;;;19.90;8.73;;;;;;;19.41;97.12;102240.91;4984563;28;20073;-91
2023/09/14 09:35:26;;;;;;;22.23;8.75;;;;;;;19.41;95.48;102245.44;5029142;28;20114;-89
2023/09/14 09:37:53;;;;;;;24.13;8.88;;;;;;;19.49;95.89;102237.59;5011806;28;20045;-90
2023/09/14 09:40:21;;;;;;;18.40;8.80;;;;;;;19.43;93.53;102238.09;5028810;28;20073;-90
2023/09/14 09:42:49;;;;;;;18.33;8.38;;;;;;;19.18;94.13;102233.75;4999405;28;20096;-91
2023/09/14 09:45:15;;;;;;;18.33;7.75;;;;;;;19.25;93.71;102231.41;4999484;28;20038;-90
2023/09/14 09:47:41;;;;;;;18.10;8.00;;;;;;;19.60;94.83;102231.38;5033533;28;20053;-89
2023/09/14 09:50:09;;;;;;;16.27;7.65;;;;;;;19.22;96.76;102237.03;4999299;28;20064;-89
2023/09/14 09:52:35;;;;;;;16.27;7.30;;;;;;;19.35;94.65;102235.13;4997985;28;20228;-89
2023/09/14 09:55:04;;;;;;;17.50;7.43;;;;;;;19.64;94.61;102233.72;4997013;28;20037;-90
2023/09/14 09:57:34;;;;;;;19.05;7.45;;;;;;;19.79;95.99;102223.50;4993427;28;20042;-88
2023/09/14 10:00:13;;;;;;;18.17;7.68;;;;;;;19.83;95.37;102221.41;5029011;28;20042;-89
2023/09/14 10:02:41;;;;;;;29.48;10.00;;;;;;;19.91;95.00;102222.50;5014248;28;20034;-89
2023/09/14 10:05:12;;;;;;;22.67;8.77;;;;;;;20.23;93.64;102224.47;5026048;28;20038;-90
2023/09/14 10:07:40;;;;;;;18.65;7.55;;;;;;;20.25;93.70;102232.44;4995679;28;20069;-90
2023/09/14 10:10:12;;;;;;;23.55;10.80;;;;;;;20.04;91.27;102225.09;5006069;28;20143;-90
2023/09/14 10:12:39;;;;;;;19.30;8.63;;;;;;;20.43;91.01;102228.19;5013427;28;20042;-90
2023/09/14 10:15:07;;;;;;;22.08;8.40;;;;;;;20.62;88.58;102225.72;5014048;28;20108;-90
2023/09/14 10:17:33;;;;;;;17.92;8.30;;;;;;;20.39;86.64;102219.50;5014113;28;20217;-90
2023/09/14 10:20:00;;;;;;;18.08;7.85;;;;;;;21.03;86.72;102225.91;4993411;28;20057;-90
2023/09/14 10:22:27;;;;;;;16.58;7.72;;;;;;;20.92;86.67;102230.38;5007708;28;20044;-90
2023/09/14 10:24:54;;;;;;;17.88;7.55;;;;;;;20.30;81.52;102228.38;4992972;28;20510;-87
2023/09/14 10:27:23;;;;;;;19.15;8.25;;;;;;;20.58;80.92;102221.56;4986327;28;20040;-90
2023/09/14 10:29:50;;;;;;;18.92;7.45;;;;;;;20.97;81.04;102224.56;5004817;28;20045;-89
2023/09/14 10:32:19;;;;;;;13.20;6.97;;;;;;;20.87;82.23;102218.22;4996922;28;20034;-91
2023/09/14 10:34:45;;;;;;;15.05;6.82;;;;;;;20.47;80.60;102223.44;4997754;28;20161;-91
2023/09/14 10:37:11;;;;;;;13.80;5.93;;;;;;;20.44;80.39;102216.41;4992460;28;20962;-88
2023/09/14 10:39:40;;;;;;;14.95;7.28;;;;;;;19.82;82.33;102217.84;4996200;28;20054;-88
2023/09/14 10:42:06;;;;;;;16.05;6.68;;;;;;;19.66;85.15;102207.38;4997870;28;20034;-90
2023/09/14 10:44:32;;;;;;;13.27;7.15;;;;;;;20.14;86.75;102217.94;4998369;28;20123;-89
2023/09/14 10:47:02;;;;;;;18.15;7.35;;;;;;;20.56;87.21;102214.53;5009271;28;20041;-90
2023/09/14 10:49:33;;;;;;;10.38;6.75;;;;;;;21.00;82.58;102209.91;5007913;28;20562;-90
2023/09/14 10:51:59;;;;;;;16.83;7.03;;;;;;;20.82;83.68;102212.31;5007158;28;20038;-88
2023/09/14 10:54:27;;;;;;;9.63;5.93;;;;;;;21.51;80.08;102200.97;5023237;28;20030;-90
2023/09/14 10:57:01;;;;;;;14.70;5.32;;;;;;;21.33;78.54;102198.00;4999197;28;20117;-90
2023/09/14 10:59:46;;;;;;;13.02;4.80;;;;;;;21.71;77.07;102198.19;4989238;28;20113;-89
2023/09/14 11:02:11;;;;;;;12.15;4.95;;;;;;;21.74;77.18;102199.81;4982477;28;20057;-89
2023/09/14 11:05:13;;;;;;;11.10;4.95;;;;;;;22.04;71.33;102200.72;5009121;28;20034;-90
2023/09/14 11:07:41;;;;;;;10.73;4.22;;;;;;;21.77;69.63;102191.34;5027369;28;20026;-88
2023/09/14 11:10:09;;;;;;;8.43;4.55;;;;;;;21.69;68.94;102191.19;5025641;28;20124;-87
2023/09/14 11:12:34;;;;;;;10.70;4.18;;;;;;;22.12;69.42;102185.50;5006434;28;20037;-90
2023/09/14 11:15:20;;;;;;;10.20;3.97;;;;;;;21.87;69.63;102189.53;4991051;28;20030;-88